Trout Lake, New York
Current Conditions -  °F | °C
As of 12:53 AM on Sunday 26 Oct 2014 (Local Time) from KGFL Reporting Station
Broken Clouds Broken Clouds  
Wind Chill: 50°   Ceiling: 4700
Heat Index: 50°   Visibility: 10mi
Dew Point: 46°   Wind: 7mph
Humidity: 86%   Direction: 200°SSW
Pressure: 29.49"   Gusts: NA
Location:  43.5383°N, 73.7083°W
Report Text: KGFL 260453Z AUTO 20006KT 10SM BKN047 BKN055 10/08 A2949 RMK AO2 SLP987 T01000078 401610044
Loading
Personal Weather Stations






























Interactive Weather Map
Tropical Storm Tracking
New forecast layout! Learn more

10-Day Weather Forecast

Advertisements
Track Severe Weather on mobile